Terminal Aerodrome Forecast
Issued by NWS

Home | Current Version | Previous Version | Text Only | Print | Product List | Glossary On
Versions: 1 2 3 4 5 6 7 8 9 10 11 12 13 14 15 16 17 18 19 20
000
FTUS43 KSGF 010600 AAA
TAFJLN
TAF AMD
KJLN 010643Z 0107/0206 VRB05KT 3SM BR SCT006 OVC012
     FM011700 34005KT 3SM BR OVC007
     FM012000 VRB05KT P6SM OVC020=

USA.gov is the U.S. government's official web portal to all federal, state and local government web resources and services.